sensor_id;sensor_type;location;lat;lon;timestamp;pressure;altitude;pressure_sealevel;temperature;humidity
9281;BME280;4679;47.966;7.958;2022-12-07T06:50:06;97166.56;;;1.99;89.62
9281;BME280;4679;47.966;7.958;2022-12-07T06:52:08;97172.59;;;1.99;88.81
9281;BME280;4679;47.966;7.958;2022-12-07T06:54:10;97171.00;;;1.98;89.36
9281;BME280;4679;47.966;7.958;2022-12-07T06:56:12;97177.53;;;1.88;89.43
9281;BME280;4679;47.966;7.958;2022-12-07T06:58:14;97184.09;;;1.77;89.00
9281;BME280;4679;47.966;7.958;2022-12-07T07:00:16;97175.59;;;1.75;89.49
9281;BME280;4679;47.966;7.958;2022-12-07T07:02:27;97171.91;;;1.69;89.09
9281;BME280;4679;47.966;7.958;2022-12-07T07:04:29;97175.34;;;1.70;89.73
9281;BME280;4679;47.966;7.958;2022-12-07T07:06:32;97178.97;;;1.69;89.75
9281;BME280;4679;47.966;7.958;2022-12-07T07:08:35;97173.06;;;1.60;89.86
9281;BME280;4679;47.966;7.958;2022-12-07T07:10:37;97177.59;;;1.52;89.47
9281;BME280;4679;47.966;7.958;2022-12-07T07:12:38;97179.69;;;1.41;89.83
9281;BME280;4679;47.966;7.958;2022-12-07T07:14:40;97177.81;;;1.35;89.34
9281;BME280;4679;47.966;7.958;2022-12-07T07:16:42;97187.00;;;1.31;89.93
9281;BME280;4679;47.966;7.958;2022-12-07T07:18:43;97193.22;;;1.30;89.35
9281;BME280;4679;47.966;7.958;2022-12-07T07:20:45;97185.91;;;1.40;90.05
9281;BME280;4679;47.966;7.958;2022-12-07T07:22:48;97185.72;;;1.42;89.56
9281;BME280;4679;47.966;7.958;2022-12-07T07:24:50;97186.88;;;1.39;89.76
9281;BME280;4679;47.966;7.958;2022-12-07T07:26:52;97192.22;;;1.46;89.82
9281;BME280;4679;47.966;7.958;2022-12-07T07:28:54;97196.25;;;1.49;90.01
9281;BME280;4679;47.966;7.958;2022-12-07T07:30:55;97196.06;;;1.50;89.56
9281;BME280;4679;47.966;7.958;2022-12-07T07:32:57;97201.94;;;1.52;89.61
9281;BME280;4679;47.966;7.958;2022-12-07T07:34:59;97194.63;;;1.48;89.17
9281;BME280;4679;47.966;7.958;2022-12-07T07:37:01;97196.63;;;1.46;89.51
9281;BME280;4679;47.966;7.958;2022-12-07T07:39:04;97200.13;;;1.53;89.18
9281;BME280;4679;47.966;7.958;2022-12-07T07:41:06;97210.66;;;1.59;89.29
9281;BME280;4679;47.966;7.958;2022-12-07T07:43:07;97216.78;;;1.66;88.98
9281;BME280;4679;47.966;7.958;2022-12-07T07:45:10;97211.47;;;1.60;89.19
9281;BME280;4679;47.966;7.958;2022-12-07T07:47:11;97208.97;;;1.52;89.07
9281;BME280;4679;47.966;7.958;2022-12-07T07:49:13;97225.75;;;1.42;89.80
9281;BME280;4679;47.966;7.958;2022-12-07T07:51:15;97223.41;;;1.33;89.78
9281;BME280;4679;47.966;7.958;2022-12-07T07:53:17;97226.03;;;1.33;89.72
9281;BME280;4679;47.966;7.958;2022-12-07T07:55:20;97226.66;;;1.35;89.25
9281;BME280;4679;47.966;7.958;2022-12-07T07:57:22;97230.72;;;1.37;89.66
9281;BME280;4679;47.966;7.958;2022-12-07T07:59:24;97227.09;;;1.38;89.44
9281;BME280;4679;47.966;7.958;2022-12-07T08:01:26;97234.75;;;1.40;89.51
9281;BME280;4679;47.966;7.958;2022-12-07T08:03:27;97227.47;;;1.35;89.84
9281;BME280;4679;47.966;7.958;2022-12-07T08:05:29;97230.19;;;1.27;89.42
9281;BME280;4679;47.966;7.958;2022-12-07T08:07:31;97230.34;;;1.26;89.76
9281;BME280;4679;47.966;7.958;2022-12-07T08:09:32;97231.44;;;1.31;89.36
9281;BME280;4679;47.966;7.958;2022-12-07T08:11:35;97236.31;;;1.34;89.37
9281;BME280;4679;47.966;7.958;2022-12-07T08:13:37;97231.44;;;1.31;89.24
9281;BME280;4679;47.966;7.958;2022-12-07T08:15:40;97234.41;;;1.28;89.72
9281;BME280;4679;47.966;7.958;2022-12-07T08:17:42;97234.41;;;1.28;89.39
9281;BME280;4679;47.966;7.958;2022-12-07T08:19:44;97237.84;;;1.29;89.18
9281;BME280;4679;47.966;7.958;2022-12-07T08:21:46;97243.25;;;1.27;89.86
9281;BME280;4679;47.966;7.958;2022-12-07T08:23:48;97239.63;;;1.28;89.32
9281;BME280;4679;47.966;7.958;2022-12-07T08:25:49;97241.72;;;1.33;89.71
9281;BME280;4679;47.966;7.958;2022-12-07T08:27:53;97244.97;;;1.35;89.70
9281;BME280;4679;47.966;7.958;2022-12-07T08:29:54;97248.63;;;1.40;89.28
9281;BME280;4679;47.966;7.958;2022-12-07T08:31:56;97242.50;;;1.48;89.33
9281;BME280;4679;47.966;7.958;2022-12-07T08:33:58;97240.94;;;1.54;89.10
9281;BME280;4679;47.966;7.958;2022-12-07T08:36:00;97244.63;;;1.59;89.14
9281;BME280;4679;47.966;7.958;2022-12-07T08:38:02;97241.94;;;1.67;89.47
9281;BME280;4679;47.966;7.958;2022-12-07T08:40:05;97245.97;;;1.70;89.58
9281;BME280;4679;47.966;7.958;2022-12-07T08:42:07;97242.47;;;1.63;88.96
9281;BME280;4679;47.966;7.958;2022-12-07T08:44:10;97247.44;;;1.58;89.15
9281;BME280;4679;47.966;7.958;2022-12-07T08:46:16;97248.44;;;1.57;89.38
9281;BME280;4679;47.966;7.958;2022-12-07T08:48:19;97247.69;;;1.63;89.04
9281;BME280;4679;47.966;7.958;2022-12-07T08:50:24;97245.22;;;1.76;88.86
9281;BME280;4679;47.966;7.958;2022-12-07T08:52:26;97239.69;;;1.86;89.41
9281;BME280;4679;47.966;7.958;2022-12-07T08:54:28;97236.97;;;1.94;88.48
9281;BME280;4679;47.966;7.958;2022-12-07T08:56:30;97239.63;;;2.00;88.61
9281;BME280;4679;47.966;7.958;2022-12-07T08:58:33;97233.78;;;2.20;88.04
9281;BME280;4679;47.966;7.958;2022-12-07T09:00:36;97236.41;;;2.20;88.94
9281;BME280;4679;47.966;7.958;2022-12-07T09:02:38;97238.84;;;2.42;88.44
9281;BME280;4679;47.966;7.958;2022-12-07T09:04:40;97239.94;;;2.55;88.57
9281;BME280;4679;47.966;7.958;2022-12-07T09:06:42;97231.16;;;2.69;88.18
9281;BME280;4679;47.966;7.958;2022-12-07T09:08:48;97230.06;;;2.85;87.84
9281;BME280;4679;47.966;7.958;2022-12-07T09:10:51;97228.06;;;2.87;87.65
9281;BME280;4679;47.966;7.958;2022-12-07T09:12:53;97235.81;;;3.01;87.33
9281;BME280;4679;47.966;7.958;2022-12-07T09:14:55;97237.88;;;3.12;87.33
9281;BME280;4679;47.966;7.958;2022-12-07T09:17:06;97229.50;;;3.30;87.25
9281;BME280;4679;47.966;7.958;2022-12-07T09:19:08;97236.38;;;3.38;86.92
9281;BME280;4679;47.966;7.958;2022-12-07T09:21:10;97237.88;;;3.53;86.78
9281;BME280;4679;47.966;7.958;2022-12-07T09:23:11;97236.91;;;3.68;86.63
9281;BME280;4679;47.966;7.958;2022-12-07T09:25:13;97237.38;;;3.78;86.07
9281;BME280;4679;47.966;7.958;2022-12-07T09:27:15;97242.63;;;3.84;86.25
9281;BME280;4679;47.966;7.958;2022-12-07T09:29:18;97237.81;;;3.95;85.88
9281;BME280;4679;47.966;7.958;2022-12-07T09:31:20;97240.84;;;3.98;85.93
9281;BME280;4679;47.966;7.958;2022-12-07T09:33:23;97242.06;;;4.02;86.03
9281;BME280;4679;47.966;7.958;2022-12-07T09:35:24;97239.25;;;3.97;86.05
9281;BME280;4679;47.966;7.958;2022-12-07T09:37:26;97246.50;;;3.95;85.99
9281;BME280;4679;47.966;7.958;2022-12-07T09:39:28;97236.63;;;3.97;86.04
9281;BME280;4679;47.966;7.958;2022-12-07T09:41:30;97232.59;;;4.14;85.74
9281;BME280;4679;47.966;7.958;2022-12-07T09:43:35;97231.78;;;4.07;85.70
9281;BME280;4679;47.966;7.958;2022-12-07T09:45:38;97227.78;;;4.24;85.65
9281;BME280;4679;47.966;7.958;2022-12-07T09:47:40;97224.75;;;4.34;85.08
9281;BME280;4679;47.966;7.958;2022-12-07T09:49:43;97221.28;;;4.47;85.26
9281;BME280;4679;47.966;7.958;2022-12-07T09:51:45;97220.72;;;4.58;85.02
9281;BME280;4679;47.966;7.958;2022-12-07T09:53:47;97217.06;;;4.66;84.53
9281;BME280;4679;47.966;7.958;2022-12-07T09:55:49;97218.88;;;4.72;84.65
9281;BME280;4679;47.966;7.958;2022-12-07T09:57:52;97215.81;;;4.75;84.25
9281;BME280;4679;47.966;7.958;2022-12-07T09:59:55;97209.56;;;4.82;83.81
9281;BME280;4679;47.966;7.958;2022-12-07T10:02:22;97216.63;;;4.88;83.77
9281;BME280;4679;47.966;7.958;2022-12-07T10:04:25;97210.53;;;4.94;83.57
9281;BME280;4679;47.966;7.958;2022-12-07T10:06:29;97207.72;;;5.03;83.33
9281;BME280;4679;47.966;7.958;2022-12-07T10:08:31;97207.88;;;5.08;83.13
9281;BME280;4679;47.966;7.958;2022-12-07T10:10:34;97205.66;;;5.18;82.64
9281;BME280;4679;47.966;7.958;2022-12-07T10:12:53;97206.81;;;5.28;82.04
9281;BME280;4679;47.966;7.958;2022-12-07T10:14:57;97203.16;;;5.29;82.13
9281;BME280;4679;47.966;7.958;2022-12-07T10:17:02;97201.31;;;5.37;82.02
9281;BME280;4679;47.966;7.958;2022-12-07T10:19:24;97201.47;;;5.48;81.49
9281;BME280;4679;47.966;7.958;2022-12-07T10:21:27;97196.09;;;5.30;81.38
9281;BME280;4679;47.966;7.958;2022-12-07T10:23:30;97192.84;;;5.35;81.62
9281;BME280;4679;47.966;7.958;2022-12-07T10:25:33;97194.81;;;5.46;80.88
9281;BME280;4679;47.966;7.958;2022-12-07T10:27:35;97184.44;;;5.57;80.42
9281;BME280;4679;47.966;7.958;2022-12-07T10:29:38;97175.31;;;5.60;80.40
9281;BME280;4679;47.966;7.958;2022-12-07T10:31:41;97180.16;;;5.63;80.64
9281;BME280;4679;47.966;7.958;2022-12-07T10:33:49;97179.66;;;5.79;80.08
9281;BME280;4679;47.966;7.958;2022-12-07T10:35:51;97180.84;;;5.83;79.84
9281;BME280;4679;47.966;7.958;2022-12-07T10:37:55;97174.34;;;5.86;79.75
9281;BME280;4679;47.966;7.958;2022-12-07T10:39:59;97167.84;;;5.95;80.08
9281;BME280;4679;47.966;7.958;2022-12-07T10:42:03;97166.16;;;6.07;79.28
9281;BME280;4679;47.966;7.958;2022-12-07T10:44:20;97164.66;;;6.11;78.18
9281;BME280;4679;47.966;7.958;2022-12-07T10:46:34;97155.50;;;6.20;78.06
9281;BME280;4679;47.966;7.958;2022-12-07T10:48:48;97150.13;;;6.33;77.91
9281;BME280;4679;47.966;7.958;2022-12-07T10:51:04;97148.25;;;6.41;77.93
9281;BME280;4679;47.966;7.958;2022-12-07T10:53:27;97142.84;;;6.29;76.98
9281;BME280;4679;47.966;7.958;2022-12-07T10:55:45;97143.03;;;6.34;77.57
9281;BME280;4679;47.966;7.958;2022-12-07T10:58:02;97145.28;;;6.30;77.76
9281;BME280;4679;47.966;7.958;2022-12-07T11:00:16;97137.53;;;6.35;76.44
9281;BME280;4679;47.966;7.958;2022-12-07T11:02:25;97136.94;;;6.33;77.27
9281;BME280;4679;47.966;7.958;2022-12-07T11:04:36;97130.63;;;6.41;76.63
9281;BME280;4679;47.966;7.958;2022-12-07T11:06:48;97129.34;;;6.44;75.92
9281;BME280;4679;47.966;7.958;2022-12-07T11:09:08;97122.56;;;6.54;76.08
9281;BME280;4679;47.966;7.958;2022-12-07T11:11:23;97123.59;;;6.53;74.89
9281;BME280;4679;47.966;7.958;2022-12-07T11:13:32;97127.31;;;6.46;74.81
9281;BME280;4679;47.966;7.958;2022-12-07T11:15:47;97125.69;;;6.69;75.29
9281;BME280;4679;47.966;7.958;2022-12-07T11:17:58;97120.16;;;6.89;74.46
9281;BME280;4679;47.966;7.958;2022-12-07T11:20:13;97121.63;;;7.03;74.21
9281;BME280;4679;47.966;7.958;2022-12-07T11:22:44;97107.34;;;7.11;74.03
9281;BME280;4679;47.966;7.958;2022-12-07T11:24:56;97108.16;;;7.12;73.58
9281;BME280;4679;47.966;7.958;2022-12-07T11:27:12;97113.13;;;7.20;72.46
9281;BME280;4679;47.966;7.958;2022-12-07T11:29:29;97106.78;;;7.39;72.14
9281;BME280;4679;47.966;7.958;2022-12-07T11:31:38;97097.19;;;7.45;71.80
9281;BME280;4679;47.966;7.958;2022-12-07T11:33:44;97100.72;;;7.50;71.28
9281;BME280;4679;47.966;7.958;2022-12-07T11:35:55;97096.00;;;7.40;72.32
9281;BME280;4679;47.966;7.958;2022-12-07T11:38:02;97098.31;;;7.49;71.45
9281;BME280;4679;47.966;7.958;2022-12-07T11:40:15;97092.47;;;7.47;70.92
9281;BME280;4679;47.966;7.958;2022-12-07T11:42:21;97093.75;;;7.56;70.74
9281;BME280;4679;47.966;7.958;2022-12-07T11:44:31;97095.94;;;6.99;71.53
9281;BME280;4679;47.966;7.958;2022-12-07T11:46:44;97086.19;;;6.99;71.76
9281;BME280;4679;47.966;7.958;2022-12-07T11:48:52;97090.13;;;7.09;71.19
9281;BME280;4679;47.966;7.958;2022-12-07T11:50:58;97086.03;;;6.76;70.62
9281;BME280;4679;47.966;7.958;2022-12-07T11:53:05;97089.34;;;6.72;71.01
9281;BME280;4679;47.966;7.958;2022-12-07T11:55:18;97077.31;;;6.57;70.33
9281;BME280;4679;47.966;7.958;2022-12-07T11:57:27;97082.22;;;6.54;70.73
9281;BME280;4679;47.966;7.958;2022-12-07T11:59:32;97080.75;;;6.40;70.96
9281;BME280;4679;47.966;7.958;2022-12-07T12:01:52;97074.44;;;6.22;70.00
9281;BME280;4679;47.966;7.958;2022-12-07T12:04:00;97074.22;;;6.24;70.69
9281;BME280;4679;47.966;7.958;2022-12-07T12:06:03;97069.09;;;6.29;69.87
9281;BME280;4679;47.966;7.958;2022-12-07T12:08:13;97068.94;;;6.42;70.20
9281;BME280;4679;47.966;7.958;2022-12-07T12:10:22;97065.91;;;6.82;68.86
9281;BME280;4679;47.966;7.958;2022-12-07T12:12:55;97050.38;;;7.22;68.42
9281;BME280;4679;47.966;7.958;2022-12-07T12:15:15;97052.38;;;7.38;67.46
9281;BME280;4679;47.966;7.958;2022-12-07T12:20:04;97050.59;;;6.72;68.44
9281;BME280;4679;47.966;7.958;2022-12-07T12:22:14;97045.47;;;6.59;68.06
9281;BME280;4679;47.966;7.958;2022-12-07T12:24:22;97041.34;;;6.45;68.02
9281;BME280;4679;47.966;7.958;2022-12-07T12:26:27;97042.25;;;6.57;68.49
9281;BME280;4679;47.966;7.958;2022-12-07T12:28:33;97051.00;;;7.05;67.81
9281;BME280;4679;47.966;7.958;2022-12-07T12:30:39;97035.75;;;7.37;67.37
9281;BME280;4679;47.966;7.958;2022-12-07T12:32:42;97033.25;;;7.43;66.50
9281;BME280;4679;47.966;7.958;2022-12-07T12:35:02;97035.22;;;7.47;66.32
9281;BME280;4679;47.966;7.958;2022-12-07T12:37:40;97039.31;;;7.43;66.13
9281;BME280;4679;47.966;7.958;2022-12-07T12:42:43;97027.47;;;7.87;65.44
9281;BME280;4679;47.966;7.958;2022-12-07T12:45:03;97035.63;;;7.97;65.08
9281;BME280;4679;47.966;7.958;2022-12-07T12:50:15;97022.41;;;7.97;64.69
9281;BME280;4679;47.966;7.958;2022-12-07T12:52:58;97021.84;;;8.07;64.65
9281;BME280;4679;47.966;7.958;2022-12-07T12:55:13;97012.66;;;8.21;64.50
9281;BME280;4679;47.966;7.958;2022-12-07T12:57:26;97022.44;;;8.32;64.00
9281;BME280;4679;47.966;7.958;2022-12-07T12:59:29;97023.47;;;8.43;63.45
9281;BME280;4679;47.966;7.958;2022-12-07T13:01:42;97017.91;;;8.56;63.39
9281;BME280;4679;47.966;7.958;2022-12-07T13:03:52;97023.34;;;8.50;63.22
9281;BME280;4679;47.966;7.958;2022-12-07T13:06:19;97014.47;;;8.56;63.03
9281;BME280;4679;47.966;7.958;2022-12-07T13:08:22;97012.31;;;8.53;63.31
9281;BME280;4679;47.966;7.958;2022-12-07T13:10:38;97004.72;;;8.44;62.90
9281;BME280;4679;47.966;7.958;2022-12-07T13:12:43;97003.94;;;8.32;63.09
9281;BME280;4679;47.966;7.958;2022-12-07T13:15:19;97006.56;;;8.44;62.96
9281;BME280;4679;47.966;7.958;2022-12-07T13:18:04;97004.50;;;8.46;62.78
9281;BME280;4679;47.966;7.958;2022-12-07T13:20:07;97004.59;;;8.28;62.30
9281;BME280;4679;47.966;7.958;2022-12-07T13:24:46;97005.25;;;7.53;63.00
9281;BME280;4679;47.966;7.958;2022-12-07T13:26:47;97003.25;;;7.37;63.88
9281;BME280;4679;47.966;7.958;2022-12-07T13:28:54;96994.97;;;7.33;63.87
9281;BME280;4679;47.966;7.958;2022-12-07T13:31:14;96997.69;;;7.45;63.34
9281;BME280;4679;47.966;7.958;2022-12-07T13:33:17;97000.19;;;7.40;63.11
9281;BME280;4679;47.966;7.958;2022-12-07T13:35:28;97002.00;;;7.39;63.54
9281;BME280;4679;47.966;7.958;2022-12-07T13:37:31;96998.03;;;7.19;63.52
9281;BME280;4679;47.966;7.958;2022-12-07T13:39:34;97003.16;;;6.72;63.48
9281;BME280;4679;47.966;7.958;2022-12-07T13:41:49;96999.41;;;6.43;63.92
9281;BME280;4679;47.966;7.958;2022-12-07T13:44:00;96998.59;;;6.43;64.88
9281;BME280;4679;47.966;7.958;2022-12-07T13:46:08;96991.97;;;6.40;64.44
9281;BME280;4679;47.966;7.958;2022-12-07T13:48:18;97000.22;;;6.25;64.20
9281;BME280;4679;47.966;7.958;2022-12-07T13:50:24;96994.28;;;6.30;64.58
9281;BME280;4679;47.966;7.958;2022-12-07T13:52:27;96996.13;;;6.29;65.03
9281;BME280;4679;47.966;7.958;2022-12-07T13:54:30;96989.09;;;6.23;64.26
9281;BME280;4679;47.966;7.958;2022-12-07T13:56:34;96995.44;;;6.16;63.95
9281;BME280;4679;47.966;7.958;2022-12-07T13:58:36;96992.44;;;5.94;63.92
9281;BME280;4679;47.966;7.958;2022-12-07T14:00:40;96984.41;;;5.82;65.37
9281;BME280;4679;47.966;7.958;2022-12-07T14:02:55;96993.31;;;5.81;65.39
9281;BME280;4679;47.966;7.958;2022-12-07T14:05:08;96986.47;;;5.80;65.39
9281;BME280;4679;47.966;7.958;2022-12-07T14:07:23;96989.81;;;5.87;65.21
9281;BME280;4679;47.966;7.958;2022-12-07T14:09:26;96986.97;;;5.95;65.25
9281;BME280;4679;47.966;7.958;2022-12-07T14:11:29;96991.19;;;5.96;64.72
9281;BME280;4679;47.966;7.958;2022-12-07T14:13:32;96986.78;;;5.90;64.59
9281;BME280;4679;47.966;7.958;2022-12-07T14:15:35;96988.84;;;5.88;64.83
9281;BME280;4679;47.966;7.958;2022-12-07T14:17:49;96985.88;;;6.03;64.03
9281;BME280;4679;47.966;7.958;2022-12-07T14:19:52;96985.00;;;6.46;62.96
9281;BME280;4679;47.966;7.958;2022-12-07T14:22:06;96982.66;;;6.56;62.71
9281;BME280;4679;47.966;7.958;2022-12-07T14:24:15;96979.63;;;6.70;63.32
9281;BME280;4679;47.966;7.958;2022-12-07T14:26:20;96967.16;;;6.78;62.96
9281;BME280;4679;47.966;7.958;2022-12-07T14:28:26;96974.47;;;6.76;62.67
9281;BME280;4679;47.966;7.958;2022-12-07T14:30:29;96974.63;;;6.81;62.59
9281;BME280;4679;47.966;7.958;2022-12-07T14:32:35;96972.88;;;6.75;63.38
9281;BME280;4679;47.966;7.958;2022-12-07T14:34:38;96966.47;;;6.70;62.36
9281;BME280;4679;47.966;7.958;2022-12-07T14:36:39;96966.59;;;6.57;62.96
9281;BME280;4679;47.966;7.958;2022-12-07T14:38:41;96969.00;;;6.59;63.06
9281;BME280;4679;47.966;7.958;2022-12-07T14:40:43;96973.16;;;6.37;63.43
9281;BME280;4679;47.966;7.958;2022-12-07T14:42:46;96970.94;;;6.15;63.41
9281;BME280;4679;47.966;7.958;2022-12-07T14:44:48;96976.63;;;6.12;63.84
9281;BME280;4679;47.966;7.958;2022-12-07T14:46:50;96976.41;;;6.14;63.20
9281;BME280;4679;47.966;7.958;2022-12-07T14:48:52;96976.13;;;6.04;63.48
9281;BME280;4679;47.966;7.958;2022-12-07T14:50:55;96975.84;;;5.93;63.96
9281;BME280;4679;47.966;7.958;2022-12-07T14:52:59;96971.94;;;5.96;64.21
9281;BME280;4679;47.966;7.958;2022-12-07T14:55:02;96970.56;;;5.93;63.53
9281;BME280;4679;47.966;7.958;2022-12-07T14:57:03;96973.78;;;5.95;63.70
9281;BME280;4679;47.966;7.958;2022-12-07T14:59:05;96977.47;;;5.88;63.59
9281;BME280;4679;47.966;7.958;2022-12-07T15:01:07;96977.00;;;5.73;64.89
9281;BME280;4679;47.966;7.958;2022-12-07T15:03:08;96990.09;;;5.54;64.99
9281;BME280;4679;47.966;7.958;2022-12-07T15:05:10;96988.69;;;5.27;64.50
9281;BME280;4679;47.966;7.958;2022-12-07T15:07:19;96985.22;;;5.02;65.47
9281;BME280;4679;47.966;7.958;2022-12-07T15:09:21;96993.00;;;4.83;65.65
9281;BME280;4679;47.966;7.958;2022-12-07T15:11:22;96987.22;;;4.68;65.52
9281;BME280;4679;47.966;7.958;2022-12-07T15:13:24;96994.97;;;4.56;66.03
9281;BME280;4679;47.966;7.958;2022-12-07T15:15:43;96995.78;;;4.44;66.37
9281;BME280;4679;47.966;7.958;2022-12-07T15:17:45;96992.19;;;4.32;66.10
9281;BME280;4679;47.966;7.958;2022-12-07T15:19:47;96992.63;;;4.22;66.83
9281;BME280;4679;47.966;7.958;2022-12-07T15:21:49;96982.94;;;4.22;66.34
9281;BME280;4679;47.966;7.958;2022-12-07T15:23:53;96997.47;;;4.25;66.50
9281;BME280;4679;47.966;7.958;2022-12-07T15:25:54;96989.41;;;4.27;67.09
9281;BME280;4679;47.966;7.958;2022-12-07T15:27:56;96981.09;;;4.30;66.63
9281;BME280;4679;47.966;7.958;2022-12-07T15:29:58;96993.22;;;4.31;66.51
9281;BME280;4679;47.966;7.958;2022-12-07T15:32:00;96994.00;;;4.31;66.65
9281;BME280;4679;47.966;7.958;2022-12-07T15:34:03;96987.34;;;4.35;66.67
9281;BME280;4679;47.966;7.958;2022-12-07T15:36:05;96990.19;;;4.34;66.56
9281;BME280;4679;47.966;7.958;2022-12-07T15:38:07;96986.56;;;4.21;66.26
9281;BME280;4679;47.966;7.958;2022-12-07T15:40:12;96987.44;;;4.09;67.05
9281;BME280;4679;47.966;7.958;2022-12-07T15:42:14;96987.25;;;3.97;67.11
9281;BME280;4679;47.966;7.958;2022-12-07T15:44:15;96987.44;;;3.89;67.42
9281;BME280;4679;47.966;7.958;2022-12-07T15:46:36;96996.75;;;3.85;67.54
9281;BME280;4679;47.966;7.958;2022-12-07T15:48:38;96985.06;;;3.81;67.23
9281;BME280;4679;47.966;7.958;2022-12-07T15:50:40;96997.16;;;3.75;67.68
9281;BME280;4679;47.966;7.958;2022-12-07T15:52:42;96995.56;;;3.61;67.91
9281;BME280;4679;47.966;7.958;2022-12-07T15:54:43;96993.72;;;3.55;67.57
9281;BME280;4679;47.966;7.958;2022-12-07T15:56:46;96992.13;;;3.54;67.89
9281;BME280;4679;47.966;7.958;2022-12-07T15:58:48;96995.97;;;3.45;68.00
9281;BME280;4679;47.966;7.958;2022-12-07T16:00:50;96992.34;;;3.33;68.18
9281;BME280;4679;47.966;7.958;2022-12-07T16:02:52;96988.69;;;3.27;68.19
9281;BME280;4679;47.966;7.958;2022-12-07T16:04:54;96984.88;;;3.30;68.42
9281;BME280;4679;47.966;7.958;2022-12-07T16:06:55;96984.66;;;3.31;68.06
9281;BME280;4679;47.966;7.958;2022-12-07T16:08:57;96982.63;;;3.27;68.01
9281;BME280;4679;47.966;7.958;2022-12-07T16:10:59;96978.59;;;3.24;68.66
9281;BME280;4679;47.966;7.958;2022-12-07T16:13:02;96976.38;;;3.21;68.51
9281;BME280;4679;47.966;7.958;2022-12-07T16:15:05;96977.41;;;3.20;68.59
9281;BME280;4679;47.966;7.958;2022-12-07T16:17:08;96974.16;;;3.18;68.44
9281;BME280;4679;47.966;7.958;2022-12-07T16:19:10;96972.56;;;3.17;68.73
9281;BME280;4679;47.966;7.958;2022-12-07T16:21:12;96973.56;;;3.16;68.63
9281;BME280;4679;47.966;7.958;2022-12-07T16:23:15;96979.19;;;3.13;68.60
9281;BME280;4679;47.966;7.958;2022-12-07T16:25:16;96980.22;;;3.18;68.43
9281;BME280;4679;47.966;7.958;2022-12-07T16:27:18;96978.41;;;3.19;68.63
9281;BME280;4679;47.966;7.958;2022-12-07T16:29:22;96967.28;;;3.10;68.32
9281;BME280;4679;47.966;7.958;2022-12-07T16:31:26;96977.59;;;3.05;68.88
9281;BME280;4679;47.966;7.958;2022-12-07T16:33:28;96966.28;;;3.05;68.51
9281;BME280;4679;47.966;7.958;2022-12-07T16:35:29;96973.94;;;3.13;68.70
9281;BME280;4679;47.966;7.958;2022-12-07T16:37:31;96972.72;;;3.09;68.65
9281;BME280;4679;47.966;7.958;2022-12-07T16:39:33;96969.31;;;3.02;69.03
9281;BME280;4679;47.966;7.958;2022-12-07T16:41:35;96968.06;;;2.91;68.90
9281;BME280;4679;47.966;7.958;2022-12-07T16:43:37;96967.06;;;2.86;68.70
9281;BME280;4679;47.966;7.958;2022-12-07T16:45:40;96972.88;;;2.81;69.11
9281;BME280;4679;47.966;7.958;2022-12-07T16:47:42;96970.25;;;2.74;69.62
9281;BME280;4679;47.966;7.958;2022-12-07T16:49:43;96973.28;;;2.71;69.13
9281;BME280;4679;47.966;7.958;2022-12-07T16:51:45;96962.59;;;2.73;69.39
9281;BME280;4679;47.966;7.958;2022-12-07T16:53:52;96965.59;;;2.70;69.73
9281;BME280;4679;47.966;7.958;2022-12-07T16:55:54;96967.81;;;2.66;68.95
9281;BME280;4679;47.966;7.958;2022-12-07T16:57:55;96971.03;;;2.68;69.31
9281;BME280;4679;47.966;7.958;2022-12-07T16:59:57;96970.44;;;2.60;69.45
9281;BME280;4679;47.966;7.958;2022-12-07T17:02:00;96971.00;;;2.55;69.68
9281;BME280;4679;47.966;7.958;2022-12-07T17:04:02;96971.63;;;2.57;69.70
9281;BME280;4679;47.966;7.958;2022-12-07T17:06:12;96965.34;;;2.52;69.48
9281;BME280;4679;47.966;7.958;2022-12-07T17:08:15;96961.53;;;2.54;69.47
9281;BME280;4679;47.966;7.958;2022-12-07T17:10:17;96963.16;;;2.55;70.01
9281;BME280;4679;47.966;7.958;2022-12-07T17:12:18;96959.91;;;2.53;69.88
9281;BME280;4679;47.966;7.958;2022-12-07T17:14:20;96960.06;;;2.45;70.20
9281;BME280;4679;47.966;7.958;2022-12-07T17:16:39;96956.41;;;2.33;69.94
9281;BME280;4679;47.966;7.958;2022-12-07T17:18:42;96950.53;;;2.24;69.96
9281;BME280;4679;47.966;7.958;2022-12-07T17:20:44;96955.75;;;2.18;70.68
9281;BME280;4679;47.966;7.958;2022-12-07T17:22:46;96953.91;;;2.11;70.06
9281;BME280;4679;47.966;7.958;2022-12-07T17:24:48;96954.53;;;2.14;70.71
9281;BME280;4679;47.966;7.958;2022-12-07T17:26:50;96952.88;;;2.06;70.41
9281;BME280;4679;47.966;7.958;2022-12-07T17:28:52;96955.44;;;1.99;70.68
9281;BME280;4679;47.966;7.958;2022-12-07T17:30:53;96953.03;;;1.98;70.88
9281;BME280;4679;47.966;7.958;2022-12-07T17:32:55;96951.44;;;1.97;70.39
9281;BME280;4679;47.966;7.958;2022-12-07T17:34:58;96957.00;;;1.87;70.59
9281;BME280;4679;47.966;7.958;2022-12-07T17:37:00;96953.50;;;1.73;70.78
9281;BME280;4679;47.966;7.958;2022-12-07T17:39:06;96952.25;;;1.69;71.83
9281;BME280;4679;47.966;7.958;2022-12-07T17:41:10;96955.47;;;1.65;71.00
9281;BME280;4679;47.966;7.958;2022-12-07T17:43:12;96955.66;;;1.63;71.37
9281;BME280;4679;47.966;7.958;2022-12-07T17:45:13;96952.84;;;1.65;71.98
9281;BME280;4679;47.966;7.958;2022-12-07T17:47:15;96951.22;;;1.64;71.15
9281;BME280;4679;47.966;7.958;2022-12-07T17:49:18;96960.16;;;1.48;71.81
9281;BME280;4679;47.966;7.958;2022-12-07T17:51:21;96956.03;;;1.32;71.75
9281;BME280;4679;47.966;7.958;2022-12-07T17:53:40;96958.75;;;1.24;72.03
9281;BME280;4679;47.966;7.958;2022-12-07T17:55:42;96960.97;;;1.21;72.70
9281;BME280;4679;47.966;7.958;2022-12-07T17:57:44;96956.97;;;1.25;72.72
9281;BME280;4679;47.966;7.958;2022-12-07T17:59:45;96949.75;;;1.27;72.51
9281;BME280;4679;47.966;7.958;2022-12-07T18:01:47;96951.31;;;1.21;72.87
9281;BME280;4679;47.966;7.958;2022-12-07T18:03:49;96951.31;;;1.21;72.33
9281;BME280;4679;47.966;7.958;2022-12-07T18:05:50;96951.06;;;1.16;72.83
9281;BME280;4679;47.966;7.958;2022-12-07T18:07:53;96949.53;;;1.22;72.47
9281;BME280;4679;47.966;7.958;2022-12-07T18:09:55;96951.63;;;1.12;72.85
9281;BME280;4679;47.966;7.958;2022-12-07T18:11:57;96949.97;;;1.04;72.99
9281;BME280;4679;47.966;7.958;2022-12-07T18:13:59;96949.81;;;1.12;73.20
9281;BME280;4679;47.966;7.958;2022-12-07T18:16:01;96946.47;;;1.18;72.40
9281;BME280;4679;47.966;7.958;2022-12-07T18:18:03;96948.22;;;1.11;73.29
9281;BME280;4679;47.966;7.958;2022-12-07T18:20:06;96945.97;;;1.08;73.20
9281;BME280;4679;47.966;7.958;2022-12-07T18:22:08;96940.88;;;1.00;73.23
9281;BME280;4679;47.966;7.958;2022-12-07T18:24:13;96937.84;;;0.96;73.35
9281;BME280;4679;47.966;7.958;2022-12-07T18:26:16;96937.22;;;0.94;73.34
9281;BME280;4679;47.966;7.958;2022-12-07T18:28:18;96937.53;;;0.85;73.10
9281;BME280;4679;47.966;7.958;2022-12-07T18:30:20;96951.72;;;0.76;73.53
9281;BME280;4679;47.966;7.958;2022-12-07T18:32:22;96948.59;;;0.65;73.51